sensor_id;sensor_type;location;lat;lon;timestamp;P1;durP1;ratioP1;P2;durP2;ratioP2
47337;SDS011;33069;51.970;5.892;2023-06-19T00:01:49;19.20;;;17.48;;
47337;SDS011;33069;51.970;5.892;2023-06-19T00:04:15;20.60;;;18.60;;
47337;SDS011;33069;51.970;5.892;2023-06-19T00:06:41;20.33;;;15.93;;
47337;SDS011;33069;51.970;5.892;2023-06-19T00:09:07;17.75;;;15.95;;
47337;SDS011;33069;51.970;5.892;2023-06-19T00:11:32;21.15;;;17.17;;
47337;SDS011;33069;51.970;5.892;2023-06-19T00:13:58;18.02;;;15.75;;
47337;SDS011;33069;51.970;5.892;2023-06-19T00:16:24;17.17;;;15.48;;
47337;SDS011;33069;51.970;5.892;2023-06-19T00:18:52;17.67;;;15.20;;
47337;SDS011;33069;51.970;5.892;2023-06-19T00:21:21;16.50;;;15.20;;
47337;SDS011;33069;51.970;5.892;2023-06-19T00:23:49;16.48;;;14.82;;
47337;SDS011;33069;51.970;5.892;2023-06-19T00:26:16;16.15;;;14.65;;
47337;SDS011;33069;51.970;5.892;2023-06-19T00:28:42;14.98;;;13.68;;
47337;SDS011;33069;51.970;5.892;2023-06-19T00:31:10;16.48;;;14.40;;
47337;SDS011;33069;51.970;5.892;2023-06-19T00:33:39;15.80;;;14.50;;
47337;SDS011;33069;51.970;5.892;2023-06-19T00:36:11;15.93;;;14.40;;
47337;SDS011;33069;51.970;5.892;2023-06-19T00:38:38;15.43;;;14.07;;
47337;SDS011;33069;51.970;5.892;2023-06-19T00:41:04;15.68;;;14.25;;
47337;SDS011;33069;51.970;5.892;2023-06-19T00:43:31;15.75;;;14.15;;
47337;SDS011;33069;51.970;5.892;2023-06-19T00:45:57;16.13;;;14.63;;
47337;SDS011;33069;51.970;5.892;2023-06-19T00:48:23;15.05;;;13.55;;
47337;SDS011;33069;51.970;5.892;2023-06-19T00:50:50;15.38;;;13.88;;
47337;SDS011;33069;51.970;5.892;2023-06-19T00:53:16;15.85;;;14.30;;
47337;SDS011;33069;51.970;5.892;2023-06-19T00:55:42;14.70;;;13.20;;
47337;SDS011;33069;51.970;5.892;2023-06-19T00:58:09;15.23;;;13.73;;
47337;SDS011;33069;51.970;5.892;2023-06-19T01:00:35;14.35;;;12.95;;
47337;SDS011;33069;51.970;5.892;2023-06-19T01:03:01;14.95;;;13.52;;
47337;SDS011;33069;51.970;5.892;2023-06-19T01:05:27;14.80;;;13.40;;
47337;SDS011;33069;51.970;5.892;2023-06-19T01:10:36;14.50;;;13.20;;
47337;SDS011;33069;51.970;5.892;2023-06-19T01:15:37;14.55;;;13.43;;
47337;SDS011;33069;51.970;5.892;2023-06-19T01:18:05;15.18;;;13.68;;
47337;SDS011;33069;51.970;5.892;2023-06-19T01:20:31;14.73;;;13.52;;
47337;SDS011;33069;51.970;5.892;2023-06-19T01:23:04;15.00;;;13.50;;
47337;SDS011;33069;51.970;5.892;2023-06-19T01:25:34;15.18;;;13.57;;
47337;SDS011;33069;51.970;5.892;2023-06-19T01:28:01;15.00;;;12.50;;
47337;SDS011;33069;51.970;5.892;2023-06-19T01:30:29;13.90;;;12.60;;
47337;SDS011;33069;51.970;5.892;2023-06-19T01:35:27;14.00;;;12.70;;
47337;SDS011;33069;51.970;5.892;2023-06-19T01:37:54;13.43;;;12.32;;
47337;SDS011;33069;51.970;5.892;2023-06-19T01:40:21;13.52;;;12.32;;
47337;SDS011;33069;51.970;5.892;2023-06-19T01:42:51;13.23;;;11.98;;
47337;SDS011;33069;51.970;5.892;2023-06-19T01:45:19;13.68;;;12.45;;
47337;SDS011;33069;51.970;5.892;2023-06-19T01:47:45;13.65;;;12.45;;
47337;SDS011;33069;51.970;5.892;2023-06-19T01:50:11;12.57;;;11.48;;
47337;SDS011;33069;51.970;5.892;2023-06-19T01:52:39;12.95;;;11.85;;
47337;SDS011;33069;51.970;5.892;2023-06-19T01:55:06;13.85;;;12.80;;
47337;SDS011;33069;51.970;5.892;2023-06-19T01:57:32;13.32;;;12.00;;
47337;SDS011;33069;51.970;5.892;2023-06-19T01:59:58;13.68;;;12.57;;
47337;SDS011;33069;51.970;5.892;2023-06-19T02:02:23;12.95;;;11.98;;
47337;SDS011;33069;51.970;5.892;2023-06-19T02:04:49;13.63;;;12.32;;
47337;SDS011;33069;51.970;5.892;2023-06-19T02:07:15;13.80;;;12.60;;
47337;SDS011;33069;51.970;5.892;2023-06-19T02:09:40;13.50;;;12.40;;
47337;SDS011;33069;51.970;5.892;2023-06-19T02:12:06;14.30;;;13.20;;
47337;SDS011;33069;51.970;5.892;2023-06-19T02:14:33;13.57;;;12.52;;
47337;SDS011;33069;51.970;5.892;2023-06-19T02:16:59;14.45;;;13.02;;
47337;SDS011;33069;51.970;5.892;2023-06-19T02:19:24;14.32;;;13.30;;
47337;SDS011;33069;51.970;5.892;2023-06-19T02:21:50;14.55;;;13.35;;
47337;SDS011;33069;51.970;5.892;2023-06-19T02:24:15;15.23;;;14.10;;
47337;SDS011;33069;51.970;5.892;2023-06-19T02:26:41;15.18;;;13.85;;
47337;SDS011;33069;51.970;5.892;2023-06-19T02:29:09;15.50;;;14.40;;
47337;SDS011;33069;51.970;5.892;2023-06-19T02:31:35;15.95;;;14.85;;
47337;SDS011;33069;51.970;5.892;2023-06-19T02:34:00;16.30;;;14.82;;
47337;SDS011;33069;51.970;5.892;2023-06-19T02:36:26;20.90;;;16.27;;
47337;SDS011;33069;51.970;5.892;2023-06-19T02:38:52;17.90;;;16.70;;
47337;SDS011;33069;51.970;5.892;2023-06-19T02:41:18;17.38;;;16.13;;
47337;SDS011;33069;51.970;5.892;2023-06-19T02:43:44;17.70;;;16.40;;
47337;SDS011;33069;51.970;5.892;2023-06-19T02:46:13;17.77;;;16.48;;
47337;SDS011;33069;51.970;5.892;2023-06-19T02:48:39;17.42;;;16.20;;
47337;SDS011;33069;51.970;5.892;2023-06-19T02:51:05;18.10;;;16.80;;
47337;SDS011;33069;51.970;5.892;2023-06-19T02:53:30;18.30;;;17.05;;
47337;SDS011;33069;51.970;5.892;2023-06-19T02:55:56;17.25;;;16.05;;
47337;SDS011;33069;51.970;5.892;2023-06-19T02:58:22;17.15;;;15.55;;
47337;SDS011;33069;51.970;5.892;2023-06-19T03:00:47;16.55;;;15.45;;
47337;SDS011;33069;51.970;5.892;2023-06-19T03:03:13;16.83;;;15.48;;
47337;SDS011;33069;51.970;5.892;2023-06-19T03:05:39;16.45;;;15.15;;
47337;SDS011;33069;51.970;5.892;2023-06-19T03:08:05;15.90;;;14.80;;
47337;SDS011;33069;51.970;5.892;2023-06-19T03:10:30;15.98;;;14.77;;
47337;SDS011;33069;51.970;5.892;2023-06-19T03:12:56;15.23;;;14.02;;
47337;SDS011;33069;51.970;5.892;2023-06-19T03:15:24;14.82;;;13.82;;
47337;SDS011;33069;51.970;5.892;2023-06-19T03:17:52;14.45;;;13.45;;
47337;SDS011;33069;51.970;5.892;2023-06-19T03:20:18;14.77;;;13.77;;
47337;SDS011;33069;51.970;5.892;2023-06-19T03:22:45;16.08;;;14.93;;
47337;SDS011;33069;51.970;5.892;2023-06-19T03:25:11;19.90;;;18.05;;
47337;SDS011;33069;51.970;5.892;2023-06-19T03:27:37;15.60;;;14.50;;
47337;SDS011;33069;51.970;5.892;2023-06-19T03:30:03;15.65;;;14.45;;
47337;SDS011;33069;51.970;5.892;2023-06-19T03:32:33;16.38;;;15.10;;
47337;SDS011;33069;51.970;5.892;2023-06-19T03:34:59;14.73;;;13.70;;
47337;SDS011;33069;51.970;5.892;2023-06-19T03:37:25;15.57;;;14.20;;
47337;SDS011;33069;51.970;5.892;2023-06-19T03:39:50;15.25;;;14.15;;
47337;SDS011;33069;51.970;5.892;2023-06-19T03:42:16;17.38;;;15.90;;
47337;SDS011;33069;51.970;5.892;2023-06-19T03:44:42;14.90;;;13.85;;
47337;SDS011;33069;51.970;5.892;2023-06-19T03:47:07;15.30;;;14.30;;
47337;SDS011;33069;51.970;5.892;2023-06-19T03:49:33;15.82;;;14.73;;
47337;SDS011;33069;51.970;5.892;2023-06-19T03:51:59;14.73;;;13.65;;
47337;SDS011;33069;51.970;5.892;2023-06-19T03:54:24;14.70;;;13.65;;
47337;SDS011;33069;51.970;5.892;2023-06-19T03:56:51;15.10;;;13.70;;
47337;SDS011;33069;51.970;5.892;2023-06-19T03:59:17;13.98;;;12.70;;
47337;SDS011;33069;51.970;5.892;2023-06-19T04:01:43;13.65;;;12.77;;
47337;SDS011;33069;51.970;5.892;2023-06-19T04:04:09;14.70;;;13.32;;
47337;SDS011;33069;51.970;5.892;2023-06-19T04:06:34;11.10;;;10.30;;
47337;SDS011;33069;51.970;5.892;2023-06-19T04:09:00;11.48;;;10.57;;
47337;SDS011;33069;51.970;5.892;2023-06-19T04:11:26;12.27;;;11.20;;
47337;SDS011;33069;51.970;5.892;2023-06-19T04:13:51;11.90;;;10.70;;
47337;SDS011;33069;51.970;5.892;2023-06-19T04:16:17;12.00;;;11.07;;
47337;SDS011;33069;51.970;5.892;2023-06-19T04:18:43;11.50;;;10.43;;
47337;SDS011;33069;51.970;5.892;2023-06-19T04:21:08;12.82;;;11.73;;
47337;SDS011;33069;51.970;5.892;2023-06-19T04:23:34;12.30;;;11.35;;
47337;SDS011;33069;51.970;5.892;2023-06-19T04:26:00;11.32;;;10.52;;
47337;SDS011;33069;51.970;5.892;2023-06-19T04:28:25;11.90;;;11.00;;
47337;SDS011;33069;51.970;5.892;2023-06-19T04:30:51;11.75;;;10.88;;
47337;SDS011;33069;51.970;5.892;2023-06-19T04:33:25;12.05;;;11.23;;
47337;SDS011;33069;51.970;5.892;2023-06-19T04:35:57;12.50;;;11.45;;
47337;SDS011;33069;51.970;5.892;2023-06-19T04:38:24;12.52;;;11.63;;
47337;SDS011;33069;51.970;5.892;2023-06-19T04:40:53;12.50;;;11.25;;
47337;SDS011;33069;51.970;5.892;2023-06-19T04:43:19;11.90;;;10.80;;
47337;SDS011;33069;51.970;5.892;2023-06-19T04:45:45;12.13;;;10.95;;
47337;SDS011;33069;51.970;5.892;2023-06-19T04:48:11;12.35;;;11.15;;
47337;SDS011;33069;51.970;5.892;2023-06-19T04:50:36;11.85;;;10.82;;
47337;SDS011;33069;51.970;5.892;2023-06-19T04:53:02;12.38;;;11.27;;
47337;SDS011;33069;51.970;5.892;2023-06-19T04:55:28;12.98;;;11.73;;
47337;SDS011;33069;51.970;5.892;2023-06-19T04:57:54;12.10;;;11.20;;
47337;SDS011;33069;51.970;5.892;2023-06-19T05:00:20;13.18;;;12.15;;
47337;SDS011;33069;51.970;5.892;2023-06-19T05:02:48;13.10;;;11.80;;
47337;SDS011;33069;51.970;5.892;2023-06-19T05:05:14;13.63;;;12.52;;
47337;SDS011;33069;51.970;5.892;2023-06-19T05:07:40;13.85;;;11.77;;
47337;SDS011;33069;51.970;5.892;2023-06-19T05:10:06;13.70;;;12.50;;
47337;SDS011;33069;51.970;5.892;2023-06-19T05:12:33;13.68;;;12.38;;
47337;SDS011;33069;51.970;5.892;2023-06-19T05:14:59;13.10;;;11.95;;
47337;SDS011;33069;51.970;5.892;2023-06-19T05:17:25;13.73;;;12.60;;
47337;SDS011;33069;51.970;5.892;2023-06-19T05:19:51;13.98;;;12.88;;
47337;SDS011;33069;51.970;5.892;2023-06-19T05:22:16;13.90;;;12.80;;
47337;SDS011;33069;51.970;5.892;2023-06-19T05:24:43;16.00;;;12.38;;
47337;SDS011;33069;51.970;5.892;2023-06-19T05:27:10;13.88;;;12.57;;
47337;SDS011;33069;51.970;5.892;2023-06-19T05:29:35;13.15;;;12.15;;
47337;SDS011;33069;51.970;5.892;2023-06-19T05:32:01;14.57;;;13.20;;
47337;SDS011;33069;51.970;5.892;2023-06-19T05:34:27;15.48;;;14.05;;
47337;SDS011;33069;51.970;5.892;2023-06-19T05:36:53;14.52;;;13.00;;
47337;SDS011;33069;51.970;5.892;2023-06-19T05:39:18;15.18;;;12.90;;
47337;SDS011;33069;51.970;5.892;2023-06-19T05:41:44;16.38;;;14.45;;
47337;SDS011;33069;51.970;5.892;2023-06-19T05:44:11;14.07;;;12.90;;
47337;SDS011;33069;51.970;5.892;2023-06-19T05:46:41;15.18;;;13.98;;
47337;SDS011;33069;51.970;5.892;2023-06-19T05:49:07;14.70;;;13.32;;
47337;SDS011;33069;51.970;5.892;2023-06-19T05:51:32;14.93;;;13.65;;
47337;SDS011;33069;51.970;5.892;2023-06-19T05:53:58;15.13;;;13.82;;
47337;SDS011;33069;51.970;5.892;2023-06-19T05:56:28;15.32;;;13.88;;
47337;SDS011;33069;51.970;5.892;2023-06-19T05:58:54;16.88;;;15.25;;
47337;SDS011;33069;51.970;5.892;2023-06-19T06:01:20;16.08;;;14.45;;
47337;SDS011;33069;51.970;5.892;2023-06-19T06:03:46;16.20;;;14.73;;
47337;SDS011;33069;51.970;5.892;2023-06-19T06:06:11;15.90;;;14.60;;
47337;SDS011;33069;51.970;5.892;2023-06-19T06:08:37;16.95;;;15.43;;
47337;SDS011;33069;51.970;5.892;2023-06-19T06:11:03;17.90;;;16.30;;
47337;SDS011;33069;51.970;5.892;2023-06-19T06:13:28;15.55;;;14.32;;
47337;SDS011;33069;51.970;5.892;2023-06-19T06:15:54;21.23;;;17.15;;
47337;SDS011;33069;51.970;5.892;2023-06-19T06:18:20;17.88;;;16.15;;
47337;SDS011;33069;51.970;5.892;2023-06-19T06:20:45;18.63;;;16.98;;
47337;SDS011;33069;51.970;5.892;2023-06-19T06:23:11;19.00;;;17.25;;
47337;SDS011;33069;51.970;5.892;2023-06-19T06:25:37;19.90;;;18.17;;
47337;SDS011;33069;51.970;5.892;2023-06-19T06:28:03;18.95;;;17.40;;
47337;SDS011;33069;51.970;5.892;2023-06-19T06:30:30;21.38;;;19.38;;
47337;SDS011;33069;51.970;5.892;2023-06-19T06:32:55;19.10;;;17.38;;
47337;SDS011;33069;51.970;5.892;2023-06-19T06:35:21;19.60;;;17.70;;
47337;SDS011;33069;51.970;5.892;2023-06-19T06:37:47;19.17;;;17.48;;
47337;SDS011;33069;51.970;5.892;2023-06-19T06:40:15;18.48;;;16.65;;
47337;SDS011;33069;51.970;5.892;2023-06-19T06:42:40;17.75;;;16.15;;
47337;SDS011;33069;51.970;5.892;2023-06-19T06:45:06;17.83;;;16.27;;
47337;SDS011;33069;51.970;5.892;2023-06-19T06:47:34;18.90;;;17.10;;
47337;SDS011;33069;51.970;5.892;2023-06-19T06:50:00;18.27;;;16.73;;
47337;SDS011;33069;51.970;5.892;2023-06-19T06:52:25;18.67;;;16.80;;
47337;SDS011;33069;51.970;5.892;2023-06-19T06:54:53;19.27;;;17.25;;
47337;SDS011;33069;51.970;5.892;2023-06-19T06:57:18;18.73;;;17.13;;
47337;SDS011;33069;51.970;5.892;2023-06-19T06:59:44;19.77;;;17.77;;
47337;SDS011;33069;51.970;5.892;2023-06-19T07:02:10;18.80;;;17.00;;
47337;SDS011;33069;51.970;5.892;2023-06-19T07:04:36;19.25;;;17.45;;
47337;SDS011;33069;51.970;5.892;2023-06-19T07:07:01;20.67;;;18.23;;
47337;SDS011;33069;51.970;5.892;2023-06-19T07:09:29;17.65;;;16.15;;
47337;SDS011;33069;51.970;5.892;2023-06-19T07:11:55;18.85;;;17.05;;
47337;SDS011;33069;51.970;5.892;2023-06-19T07:14:21;18.67;;;17.08;;
47337;SDS011;33069;51.970;5.892;2023-06-19T07:16:48;18.10;;;16.60;;
47337;SDS011;33069;51.970;5.892;2023-06-19T07:19:14;16.35;;;14.80;;
47337;SDS011;33069;51.970;5.892;2023-06-19T07:21:41;17.20;;;15.80;;
47337;SDS011;33069;51.970;5.892;2023-06-19T07:24:07;16.83;;;15.52;;
47337;SDS011;33069;51.970;5.892;2023-06-19T07:26:33;17.98;;;16.27;;
47337;SDS011;33069;51.970;5.892;2023-06-19T07:28:59;17.23;;;15.93;;
47337;SDS011;33069;51.970;5.892;2023-06-19T07:31:24;18.17;;;16.58;;
47337;SDS011;33069;51.970;5.892;2023-06-19T07:33:50;17.17;;;15.38;;
47337;SDS011;33069;51.970;5.892;2023-06-19T07:36:16;17.23;;;15.80;;
47337;SDS011;33069;51.970;5.892;2023-06-19T07:38:42;16.13;;;14.63;;
47337;SDS011;33069;51.970;5.892;2023-06-19T07:41:08;16.02;;;14.63;;
47337;SDS011;33069;51.970;5.892;2023-06-19T07:43:36;17.08;;;15.43;;
47337;SDS011;33069;51.970;5.892;2023-06-19T07:46:02;18.80;;;17.10;;
47337;SDS011;33069;51.970;5.892;2023-06-19T07:48:28;18.73;;;17.08;;
47337;SDS011;33069;51.970;5.892;2023-06-19T07:50:54;17.88;;;16.15;;
47337;SDS011;33069;51.970;5.892;2023-06-19T07:53:20;20.83;;;19.02;;
47337;SDS011;33069;51.970;5.892;2023-06-19T07:55:45;18.25;;;16.63;;
47337;SDS011;33069;51.970;5.892;2023-06-19T07:58:11;20.73;;;18.83;;
47337;SDS011;33069;51.970;5.892;2023-06-19T08:00:37;21.92;;;19.83;;
47337;SDS011;33069;51.970;5.892;2023-06-19T08:03:03;19.90;;;18.10;;
47337;SDS011;33069;51.970;5.892;2023-06-19T08:05:29;20.75;;;18.92;;
47337;SDS011;33069;51.970;5.892;2023-06-19T08:07:56;20.98;;;19.00;;
47337;SDS011;33069;51.970;5.892;2023-06-19T08:10:23;23.20;;;21.20;;
47337;SDS011;33069;51.970;5.892;2023-06-19T08:12:49;21.33;;;19.50;;
47337;SDS011;33069;51.970;5.892;2023-06-19T08:15:14;23.27;;;21.05;;
47337;SDS011;33069;51.970;5.892;2023-06-19T08:17:40;20.10;;;18.27;;
47337;SDS011;33069;51.970;5.892;2023-06-19T08:20:07;22.52;;;20.73;;
47337;SDS011;33069;51.970;5.892;2023-06-19T08:22:33;29.60;;;27.40;;
47337;SDS011;33069;51.970;5.892;2023-06-19T08:24:59;23.42;;;21.20;;
47337;SDS011;33069;51.970;5.892;2023-06-19T08:27:25;26.83;;;24.67;;
47337;SDS011;33069;51.970;5.892;2023-06-19T08:29:51;21.90;;;19.48;;
47337;SDS011;33069;51.970;5.892;2023-06-19T08:32:16;21.60;;;19.48;;
47337;SDS011;33069;51.970;5.892;2023-06-19T08:34:42;21.30;;;19.15;;
47337;SDS011;33069;51.970;5.892;2023-06-19T08:37:08;22.77;;;20.67;;
47337;SDS011;33069;51.970;5.892;2023-06-19T08:39:34;24.20;;;21.92;;
47337;SDS011;33069;51.970;5.892;2023-06-19T08:42:05;22.52;;;20.40;;
47337;SDS011;33069;51.970;5.892;2023-06-19T08:44:33;24.20;;;21.77;;
47337;SDS011;33069;51.970;5.892;2023-06-19T08:46:59;24.17;;;22.02;;
47337;SDS011;33069;51.970;5.892;2023-06-19T08:49:29;24.17;;;21.60;;
47337;SDS011;33069;51.970;5.892;2023-06-19T08:51:55;25.75;;;23.25;;
47337;SDS011;33069;51.970;5.892;2023-06-19T08:54:21;24.33;;;22.13;;
47337;SDS011;33069;51.970;5.892;2023-06-19T08:56:47;24.65;;;22.45;;
47337;SDS011;33069;51.970;5.892;2023-06-19T08:59:14;26.75;;;24.10;;
47337;SDS011;33069;51.970;5.892;2023-06-19T09:01:48;25.13;;;22.35;;
47337;SDS011;33069;51.970;5.892;2023-06-19T09:04:22;26.10;;;23.73;;
47337;SDS011;33069;51.970;5.892;2023-06-19T09:06:55;24.33;;;22.02;;
47337;SDS011;33069;51.970;5.892;2023-06-19T09:09:22;28.38;;;23.25;;
47337;SDS011;33069;51.970;5.892;2023-06-19T09:17:04;27.77;;;24.95;;
47337;SDS011;33069;51.970;5.892;2023-06-19T09:19:31;26.88;;;24.33;;
47337;SDS011;33069;51.970;5.892;2023-06-19T09:22:07;26.20;;;23.48;;
47337;SDS011;33069;51.970;5.892;2023-06-19T09:24:37;25.85;;;23.35;;
47337;SDS011;33069;51.970;5.892;2023-06-19T09:27:24;26.77;;;24.10;;
47337;SDS011;33069;51.970;5.892;2023-06-19T09:29:50;26.38;;;23.75;;
47337;SDS011;33069;51.970;5.892;2023-06-19T09:34:45;23.42;;;21.17;;
47337;SDS011;33069;51.970;5.892;2023-06-19T09:37:12;25.60;;;23.17;;
47337;SDS011;33069;51.970;5.892;2023-06-19T09:39:38;26.75;;;24.38;;
47337;SDS011;33069;51.970;5.892;2023-06-19T09:42:08;36.45;;;33.45;;
47337;SDS011;33069;51.970;5.892;2023-06-19T09:44:44;25.98;;;23.63;;
47337;SDS011;33069;51.970;5.892;2023-06-19T09:47:21;30.30;;;27.38;;
47337;SDS011;33069;51.970;5.892;2023-06-19T09:49:52;24.05;;;21.83;;
47337;SDS011;33069;51.970;5.892;2023-06-19T09:52:19;35.78;;;30.08;;
47337;SDS011;33069;51.970;5.892;2023-06-19T09:54:48;28.85;;;26.10;;
47337;SDS011;33069;51.970;5.892;2023-06-19T09:57:19;26.95;;;24.20;;
47337;SDS011;33069;51.970;5.892;2023-06-19T09:59:49;28.23;;;25.55;;
47337;SDS011;33069;51.970;5.892;2023-06-19T10:02:18;27.95;;;25.45;;
47337;SDS011;33069;51.970;5.892;2023-06-19T10:04:47;37.65;;;34.58;;
47337;SDS011;33069;51.970;5.892;2023-06-19T10:09:54;27.45;;;24.75;;
47337;SDS011;33069;51.970;5.892;2023-06-19T10:12:44;29.10;;;26.02;;
47337;SDS011;33069;51.970;5.892;2023-06-19T10:15:17;29.33;;;26.52;;
47337;SDS011;33069;51.970;5.892;2023-06-19T10:17:48;33.97;;;30.83;;
47337;SDS011;33069;51.970;5.892;2023-06-19T10:25:33;30.27;;;27.38;;
47337;SDS011;33069;51.970;5.892;2023-06-19T10:28:00;33.80;;;28.38;;
47337;SDS011;33069;51.970;5.892;2023-06-19T10:30:26;31.45;;;28.33;;
47337;SDS011;33069;51.970;5.892;2023-06-19T10:32:53;31.02;;;28.13;;
47337;SDS011;33069;51.970;5.892;2023-06-19T10:35:18;28.42;;;25.73;;
47337;SDS011;33069;51.970;5.892;2023-06-19T10:37:49;31.42;;;28.52;;
47337;SDS011;33069;51.970;5.892;2023-06-19T10:40:15;39.13;;;36.00;;
47337;SDS011;33069;51.970;5.892;2023-06-19T10:42:42;33.45;;;29.92;;
47337;SDS011;33069;51.970;5.892;2023-06-19T10:45:12;33.00;;;29.77;;
47337;SDS011;33069;51.970;5.892;2023-06-19T10:47:41;33.78;;;30.27;;
47337;SDS011;33069;51.970;5.892;2023-06-19T10:50:11;32.40;;;29.42;;
47337;SDS011;33069;51.970;5.892;2023-06-19T10:52:42;32.60;;;29.35;;
47337;SDS011;33069;51.970;5.892;2023-06-19T10:55:09;34.63;;;31.65;;
47337;SDS011;33069;51.970;5.892;2023-06-19T10:57:35;41.67;;;38.00;;
47337;SDS011;33069;51.970;5.892;2023-06-19T11:00:01;33.70;;;30.50;;
47337;SDS011;33069;51.970;5.892;2023-06-19T11:02:35;36.00;;;32.55;;
47337;SDS011;33069;51.970;5.892;2023-06-19T11:05:02;33.90;;;30.45;;
47337;SDS011;33069;51.970;5.892;2023-06-19T11:07:28;33.05;;;29.95;;
47337;SDS011;33069;51.970;5.892;2023-06-19T11:09:54;33.72;;;30.63;;
47337;SDS011;33069;51.970;5.892;2023-06-19T11:12:20;33.53;;;30.08;;
47337;SDS011;33069;51.970;5.892;2023-06-19T11:14:47;30.27;;;27.25;;
47337;SDS011;33069;51.970;5.892;2023-06-19T11:17:13;33.30;;;29.55;;
47337;SDS011;33069;51.970;5.892;2023-06-19T11:19:39;34.95;;;31.27;;
47337;SDS011;33069;51.970;5.892;2023-06-19T11:22:07;28.98;;;26.13;;
47337;SDS011;33069;51.970;5.892;2023-06-19T11:24:33;27.00;;;24.60;;
47337;SDS011;33069;51.970;5.892;2023-06-19T11:26:58;29.27;;;26.45;;
47337;SDS011;33069;51.970;5.892;2023-06-19T11:29:29;29.55;;;26.73;;
47337;SDS011;33069;51.970;5.892;2023-06-19T11:32:08;32.95;;;29.85;;
47337;SDS011;33069;51.970;5.892;2023-06-19T11:34:37;38.38;;;34.80;;
47337;SDS011;33069;51.970;5.892;2023-06-19T11:37:15;32.28;;;29.10;;
47337;SDS011;33069;51.970;5.892;2023-06-19T11:39:46;28.70;;;26.08;;
47337;SDS011;33069;51.970;5.892;2023-06-19T11:42:14;29.17;;;26.13;;
47337;SDS011;33069;51.970;5.892;2023-06-19T11:47:21;30.58;;;27.83;;
47337;SDS011;33069;51.970;5.892;2023-06-19T11:49:47;29.88;;;26.67;;
47337;SDS011;33069;51.970;5.892;2023-06-19T11:52:14;28.35;;;25.30;;
47337;SDS011;33069;51.970;5.892;2023-06-19T11:54:40;28.10;;;25.35;;
47337;SDS011;33069;51.970;5.892;2023-06-19T11:57:06;28.25;;;25.23;;
47337;SDS011;33069;51.970;5.892;2023-06-19T11:59:31;25.73;;;22.75;;
47337;SDS011;33069;51.970;5.892;2023-06-19T12:01:57;26.20;;;23.60;;
47337;SDS011;33069;51.970;5.892;2023-06-19T12:04:24;25.73;;;21.48;;
47337;SDS011;33069;51.970;5.892;2023-06-19T12:06:51;23.58;;;21.27;;
47337;SDS011;33069;51.970;5.892;2023-06-19T12:09:18;23.25;;;20.80;;
47337;SDS011;33069;51.970;5.892;2023-06-19T12:11:43;23.08;;;19.13;;
47337;SDS011;33069;51.970;5.892;2023-06-19T12:14:09;22.63;;;20.48;;
47337;SDS011;33069;51.970;5.892;2023-06-19T12:16:35;21.42;;;19.17;;
47337;SDS011;33069;51.970;5.892;2023-06-19T12:19:00;20.08;;;17.02;;
47337;SDS011;33069;51.970;5.892;2023-06-19T12:21:26;18.33;;;16.52;;
47337;SDS011;33069;51.970;5.892;2023-06-19T12:23:52;23.58;;;16.48;;
47337;SDS011;33069;51.970;5.892;2023-06-19T12:26:18;18.17;;;16.30;;
47337;SDS011;33069;51.970;5.892;2023-06-19T12:28:44;21.45;;;19.10;;
47337;SDS011;33069;51.970;5.892;2023-06-19T12:31:10;19.65;;;16.48;;
47337;SDS011;33069;51.970;5.892;2023-06-19T12:33:35;18.27;;;16.48;;
47337;SDS011;33069;51.970;5.892;2023-06-19T12:36:04;19.95;;;17.40;;
47337;SDS011;33069;51.970;5.892;2023-06-19T12:38:31;20.20;;;18.30;;
47337;SDS011;33069;51.970;5.892;2023-06-19T12:40:56;20.85;;;18.63;;
47337;SDS011;33069;51.970;5.892;2023-06-19T12:43:22;21.02;;;18.75;;
47337;SDS011;33069;51.970;5.892;2023-06-19T12:45:48;26.38;;;23.85;;
47337;SDS011;33069;51.970;5.892;2023-06-19T12:48:13;24.10;;;20.77;;
47337;SDS011;33069;51.970;5.892;2023-06-19T12:50:39;24.02;;;21.50;;
47337;SDS011;33069;51.970;5.892;2023-06-19T12:53:05;22.23;;;20.02;;
47337;SDS011;33069;51.970;5.892;2023-06-19T12:55:30;21.13;;;19.00;;
47337;SDS011;33069;51.970;5.892;2023-06-19T12:57:56;20.80;;;18.67;;
47337;SDS011;33069;51.970;5.892;2023-06-19T13:00:22;24.05;;;19.20;;
47337;SDS011;33069;51.970;5.892;2023-06-19T13:02:47;21.17;;;18.42;;
47337;SDS011;33069;51.970;5.892;2023-06-19T13:05:13;20.88;;;17.33;;
47337;SDS011;33069;51.970;5.892;2023-06-19T13:07:39;23.95;;;18.73;;
47337;SDS011;33069;51.970;5.892;2023-06-19T13:10:04;20.63;;;18.58;;
47337;SDS011;33069;51.970;5.892;2023-06-19T13:12:31;27.17;;;21.13;;
47337;SDS011;33069;51.970;5.892;2023-06-19T13:14:57;17.38;;;15.73;;
47337;SDS011;33069;51.970;5.892;2023-06-19T13:17:23;22.38;;;19.55;;
47337;SDS011;33069;51.970;5.892;2023-06-19T13:19:49;20.48;;;18.35;;
47337;SDS011;33069;51.970;5.892;2023-06-19T13:22:15;19.52;;;17.70;;
47337;SDS011;33069;51.970;5.892;2023-06-19T13:24:40;25.92;;;21.13;;
47337;SDS011;33069;51.970;5.892;2023-06-19T13:27:06;20.85;;;18.70;;
47337;SDS011;33069;51.970;5.892;2023-06-19T13:29:32;19.27;;;17.17;;
47337;SDS011;33069;51.970;5.892;2023-06-19T13:31:57;21.98;;;17.25;;
47337;SDS011;33069;51.970;5.892;2023-06-19T13:34:23;18.50;;;15.40;;
47337;SDS011;33069;51.970;5.892;2023-06-19T13:36:49;20.10;;;17.45;;
47337;SDS011;33069;51.970;5.892;2023-06-19T13:39:14;23.38;;;18.70;;
47337;SDS011;33069;51.970;5.892;2023-06-19T13:41:44;18.17;;;15.65;;
47337;SDS011;33069;51.970;5.892;2023-06-19T13:44:10;20.45;;;17.55;;
47337;SDS011;33069;51.970;5.892;2023-06-19T13:46:37;17.55;;;15.80;;
47337;SDS011;33069;51.970;5.892;2023-06-19T13:49:03;18.48;;;16.58;;
47337;SDS011;33069;51.970;5.892;2023-06-19T13:51:29;18.30;;;16.52;;
47337;SDS011;33069;51.970;5.892;2023-06-19T13:53:54;17.58;;;15.70;;
47337;SDS011;33069;51.970;5.892;2023-06-19T13:56:20;18.48;;;16.90;;
47337;SDS011;33069;51.970;5.892;2023-06-19T13:58:48;17.98;;;16.08;;
47337;SDS011;33069;51.970;5.892;2023-06-19T14:01:14;19.55;;;17.85;;
47337;SDS011;33069;51.970;5.892;2023-06-19T14:03:39;17.92;;;16.10;;
47337;SDS011;33069;51.970;5.892;2023-06-19T14:06:05;19.35;;;17.30;;
47337;SDS011;33069;51.970;5.892;2023-06-19T14:08:31;17.98;;;16.27;;
47337;SDS011;33069;51.970;5.892;2023-06-19T14:10:59;18.20;;;16.45;;
47337;SDS011;33069;51.970;5.892;2023-06-19T14:13:25;19.27;;;17.30;;
47337;SDS011;33069;51.970;5.892;2023-06-19T14:15:50;19.52;;;17.63;;
47337;SDS011;33069;51.970;5.892;2023-06-19T14:18:18;19.08;;;17.27;;
47337;SDS011;33069;51.970;5.892;2023-06-19T14:20:43;19.08;;;17.08;;
47337;SDS011;33069;51.970;5.892;2023-06-19T14:23:09;18.08;;;16.38;;
47337;SDS011;33069;51.970;5.892;2023-06-19T14:25:35;21.20;;;19.17;;
47337;SDS011;33069;51.970;5.892;2023-06-19T14:28:00;21.45;;;19.25;;
47337;SDS011;33069;51.970;5.892;2023-06-19T14:30:26;21.13;;;18.40;;
47337;SDS011;33069;51.970;5.892;2023-06-19T14:32:52;21.88;;;19.77;;
47337;SDS011;33069;51.970;5.892;2023-06-19T14:35:17;21.33;;;19.20;;
47337;SDS011;33069;51.970;5.892;2023-06-19T14:37:43;20.33;;;18.45;;
47337;SDS011;33069;51.970;5.892;2023-06-19T14:40:09;20.73;;;18.58;;
47337;SDS011;33069;51.970;5.892;2023-06-19T14:42:35;22.23;;;19.95;;
47337;SDS011;33069;51.970;5.892;2023-06-19T14:45:01;20.15;;;18.15;;